Etusivu
METAR-TAF:

METAR-TAF

Lentoasemat :

Tucson, Arizona, Yhdysvallat

Leveyspiiri: 32-08-32N, Pituuspiiri: 111-10-28W, korkeus merenpinnasta: 737 m

Tämänhetkinen sää

Tämä raportti tehtiin 5 tuntia ja 35 minuuttia sitten, kello 01.45 UTC
Tuuli 12 kn pohjoisen/luoteesta puuskistuen 18 kn:hen
Lämpötila 11°C
Kosteus 9%
Ilmanpaine 1021 hPa
Näkyvyys: 16.1 km
selkeää

METAR: KRYN 010145Z 33012G18KT 10SM CLR 11/M21 A3016

Aika: 00:20 (07:20 UTC)


TAF: puuttuu

Säähavainnot ja -ennusteet yli 4000 lentoasemalta (METAR- ja TAF-raportit).

Käytössä olevat sääasemat on merkitty karttaan keltaisilla ja punaisilla pisteillä.

Aseta hiiri pisteen päälle nähdäksesi sääaseman nimen.

Klikkaa sitten nähdäksesi säähavainnot ja -ennusteet.

Kartan vaihtaminen: klikkaa mustalla rastilla varustettuja vihreitä pisteitä, niin voit zoomata sisään; viivalla varustettua vihreää pistettä, niin voit zoomata ulos tai vihreitä nuolia, niin pääset viereisille kartoille.


METAR-TAF: